sensor_id;sensor_type;location;lat;lon;timestamp;temperature;humidity
34153;DHT22;20426;48.372;10.888;2024-02-28T00:00:06;7.90;99.90
34153;DHT22;20426;48.372;10.888;2024-02-28T00:00:38;7.90;99.90
34153;DHT22;20426;48.372;10.888;2024-02-28T00:01:09;7.90;99.90
34153;DHT22;20426;48.372;10.888;2024-02-28T00:01:51;7.90;99.90
34153;DHT22;20426;48.372;10.888;2024-02-28T00:02:22;7.90;99.90
34153;DHT22;20426;48.372;10.888;2024-02-28T00:02:52;7.90;99.90
34153;DHT22;20426;48.372;10.888;2024-02-28T00:03:23;7.90;99.90
34153;DHT22;20426;48.372;10.888;2024-02-28T00:03:54;7.90;99.90
34153;DHT22;20426;48.372;10.888;2024-02-28T00:04:25;7.90;99.90
34153;DHT22;20426;48.372;10.888;2024-02-28T00:04:56;7.90;99.90
34153;DHT22;20426;48.372;10.888;2024-02-28T00:05:29;7.90;99.90
34153;DHT22;20426;48.372;10.888;2024-02-28T00:06:00;7.80;99.90
34153;DHT22;20426;48.372;10.888;2024-02-28T00:06:30;7.80;99.90
34153;DHT22;20426;48.372;10.888;2024-02-28T00:07:01;7.80;99.90
34153;DHT22;20426;48.372;10.888;2024-02-28T00:07:32;7.80;99.90
34153;DHT22;20426;48.372;10.888;2024-02-28T00:08:02;7.80;99.90
34153;DHT22;20426;48.372;10.888;2024-02-28T00:08:34;7.80;99.90
34153;DHT22;20426;48.372;10.888;2024-02-28T00:09:04;7.80;99.90
34153;DHT22;20426;48.372;10.888;2024-02-28T00:09:35;7.80;99.90
34153;DHT22;20426;48.372;10.888;2024-02-28T00:10:06;7.80;99.90
34153;DHT22;20426;48.372;10.888;2024-02-28T00:10:37;7.80;99.90
34153;DHT22;20426;48.372;10.888;2024-02-28T00:11:08;7.80;99.90
34153;DHT22;20426;48.372;10.888;2024-02-28T00:11:45;7.80;99.90
34153;DHT22;20426;48.372;10.888;2024-02-28T00:12:16;7.80;99.90
34153;DHT22;20426;48.372;10.888;2024-02-28T00:12:47;7.80;99.90
34153;DHT22;20426;48.372;10.888;2024-02-28T00:13:18;7.80;99.90
34153;DHT22;20426;48.372;10.888;2024-02-28T00:13:50;7.80;99.90
34153;DHT22;20426;48.372;10.888;2024-02-28T00:14:21;7.80;99.90
34153;DHT22;20426;48.372;10.888;2024-02-28T00:14:52;7.80;99.90
34153;DHT22;20426;48.372;10.888;2024-02-28T00:15:23;7.80;99.90
34153;DHT22;20426;48.372;10.888;2024-02-28T00:15:53;7.80;99.90
34153;DHT22;20426;48.372;10.888;2024-02-28T00:16:24;7.80;99.90
34153;DHT22;20426;48.372;10.888;2024-02-28T00:16:55;7.80;99.90
34153;DHT22;20426;48.372;10.888;2024-02-28T00:17:25;7.80;99.90
34153;DHT22;20426;48.372;10.888;2024-02-28T00:17:56;7.80;99.90
34153;DHT22;20426;48.372;10.888;2024-02-28T00:18:27;7.80;99.90
34153;DHT22;20426;48.372;10.888;2024-02-28T00:18:57;7.80;99.90
34153;DHT22;20426;48.372;10.888;2024-02-28T00:19:28;7.80;99.90
34153;DHT22;20426;48.372;10.888;2024-02-28T00:19:59;7.80;99.90
34153;DHT22;20426;48.372;10.888;2024-02-28T00:20:29;7.80;99.90
34153;DHT22;20426;48.372;10.888;2024-02-28T00:21:00;7.80;99.90
34153;DHT22;20426;48.372;10.888;2024-02-28T00:21:31;7.80;99.90
34153;DHT22;20426;48.372;10.888;2024-02-28T00:22:01;7.80;99.90
34153;DHT22;20426;48.372;10.888;2024-02-28T00:22:32;7.70;99.90
34153;DHT22;20426;48.372;10.888;2024-02-28T00:23:03;7.70;99.90
34153;DHT22;20426;48.372;10.888;2024-02-28T00:23:34;7.70;99.90
34153;DHT22;20426;48.372;10.888;2024-02-28T00:24:04;7.70;99.90
34153;DHT22;20426;48.372;10.888;2024-02-28T00:24:35;7.70;99.90
34153;DHT22;20426;48.372;10.888;2024-02-28T00:25:06;7.70;99.90
34153;DHT22;20426;48.372;10.888;2024-02-28T00:25:38;7.70;99.90
34153;DHT22;20426;48.372;10.888;2024-02-28T00:26:09;7.70;99.90
34153;DHT22;20426;48.372;10.888;2024-02-28T00:26:42;7.70;99.90
34153;DHT22;20426;48.372;10.888;2024-02-28T00:27:13;7.70;99.90
34153;DHT22;20426;48.372;10.888;2024-02-28T00:27:44;7.70;99.90
34153;DHT22;20426;48.372;10.888;2024-02-28T00:28:16;7.70;99.90
34153;DHT22;20426;48.372;10.888;2024-02-28T00:28:47;7.70;99.90
34153;DHT22;20426;48.372;10.888;2024-02-28T00:29:17;7.70;99.90
34153;DHT22;20426;48.372;10.888;2024-02-28T00:29:48;7.70;99.90
34153;DHT22;20426;48.372;10.888;2024-02-28T00:30:19;7.70;99.90
34153;DHT22;20426;48.372;10.888;2024-02-28T00:30:49;7.70;99.90
34153;DHT22;20426;48.372;10.888;2024-02-28T00:31:20;7.70;99.90
34153;DHT22;20426;48.372;10.888;2024-02-28T00:31:52;7.70;99.90
34153;DHT22;20426;48.372;10.888;2024-02-28T00:32:22;7.70;99.90
34153;DHT22;20426;48.372;10.888;2024-02-28T00:32:53;7.70;99.90
34153;DHT22;20426;48.372;10.888;2024-02-28T00:33:24;7.70;99.90
34153;DHT22;20426;48.372;10.888;2024-02-28T00:33:55;7.70;99.90
34153;DHT22;20426;48.372;10.888;2024-02-28T00:34:25;7.70;99.90
34153;DHT22;20426;48.372;10.888;2024-02-28T00:34:56;7.70;99.90
34153;DHT22;20426;48.372;10.888;2024-02-28T00:35:27;7.70;99.90
34153;DHT22;20426;48.372;10.888;2024-02-28T00:35:58;7.70;99.90
34153;DHT22;20426;48.372;10.888;2024-02-28T00:36:29;7.70;99.90
34153;DHT22;20426;48.372;10.888;2024-02-28T00:36:59;7.70;99.90
34153;DHT22;20426;48.372;10.888;2024-02-28T00:37:30;7.70;99.90
34153;DHT22;20426;48.372;10.888;2024-02-28T00:38:02;7.70;99.90
34153;DHT22;20426;48.372;10.888;2024-02-28T00:38:33;7.70;99.90
34153;DHT22;20426;48.372;10.888;2024-02-28T00:39:03;7.70;99.90
34153;DHT22;20426;48.372;10.888;2024-02-28T00:39:34;7.70;99.90
34153;DHT22;20426;48.372;10.888;2024-02-28T00:40:05;7.70;99.90
34153;DHT22;20426;48.372;10.888;2024-02-28T00:40:36;7.70;99.90
34153;DHT22;20426;48.372;10.888;2024-02-28T00:41:07;7.70;99.90
34153;DHT22;20426;48.372;10.888;2024-02-28T00:41:38;7.70;99.90
34153;DHT22;20426;48.372;10.888;2024-02-28T00:42:08;7.70;99.90
34153;DHT22;20426;48.372;10.888;2024-02-28T00:42:39;7.70;99.90
34153;DHT22;20426;48.372;10.888;2024-02-28T00:43:10;7.70;99.90
34153;DHT22;20426;48.372;10.888;2024-02-28T00:43:40;7.70;99.90
34153;DHT22;20426;48.372;10.888;2024-02-28T00:44:11;7.70;99.90
34153;DHT22;20426;48.372;10.888;2024-02-28T00:44:41;7.70;99.90
34153;DHT22;20426;48.372;10.888;2024-02-28T00:45:12;7.60;99.90
34153;DHT22;20426;48.372;10.888;2024-02-28T00:45:43;7.60;99.90
34153;DHT22;20426;48.372;10.888;2024-02-28T00:46:14;7.70;99.90
34153;DHT22;20426;48.372;10.888;2024-02-28T00:46:45;7.70;99.90
34153;DHT22;20426;48.372;10.888;2024-02-28T00:47:16;7.70;99.90
34153;DHT22;20426;48.372;10.888;2024-02-28T00:47:46;7.70;99.90
34153;DHT22;20426;48.372;10.888;2024-02-28T00:48:17;7.60;99.90
34153;DHT22;20426;48.372;10.888;2024-02-28T00:48:48;7.60;99.90
34153;DHT22;20426;48.372;10.888;2024-02-28T00:49:19;7.60;99.90
34153;DHT22;20426;48.372;10.888;2024-02-28T00:49:49;7.60;99.90
34153;DHT22;20426;48.372;10.888;2024-02-28T00:50:20;7.60;99.90
34153;DHT22;20426;48.372;10.888;2024-02-28T00:50:51;7.60;99.90
34153;DHT22;20426;48.372;10.888;2024-02-28T00:51:23;7.60;99.90
34153;DHT22;20426;48.372;10.888;2024-02-28T00:51:54;7.60;99.90
34153;DHT22;20426;48.372;10.888;2024-02-28T00:52:24;7.60;99.90
34153;DHT22;20426;48.372;10.888;2024-02-28T00:52:56;7.60;99.90
34153;DHT22;20426;48.372;10.888;2024-02-28T00:53:26;7.60;99.90
34153;DHT22;20426;48.372;10.888;2024-02-28T00:53:57;7.60;99.90
34153;DHT22;20426;48.372;10.888;2024-02-28T00:54:28;7.70;99.90
34153;DHT22;20426;48.372;10.888;2024-02-28T00:54:58;7.60;99.90
34153;DHT22;20426;48.372;10.888;2024-02-28T00:55:30;7.60;99.90
34153;DHT22;20426;48.372;10.888;2024-02-28T00:56:00;7.70;99.90
34153;DHT22;20426;48.372;10.888;2024-02-28T00:56:31;7.60;99.90
34153;DHT22;20426;48.372;10.888;2024-02-28T00:57:02;7.60;99.90
34153;DHT22;20426;48.372;10.888;2024-02-28T00:57:33;7.70;99.90
34153;DHT22;20426;48.372;10.888;2024-02-28T00:58:04;7.60;99.90
34153;DHT22;20426;48.372;10.888;2024-02-28T00:58:34;7.60;99.90
34153;DHT22;20426;48.372;10.888;2024-02-28T00:59:05;7.60;99.90
34153;DHT22;20426;48.372;10.888;2024-02-28T00:59:37;7.60;99.90
34153;DHT22;20426;48.372;10.888;2024-02-28T01:00:08;7.60;99.90
34153;DHT22;20426;48.372;10.888;2024-02-28T01:00:40;7.60;99.90
34153;DHT22;20426;48.372;10.888;2024-02-28T01:01:11;7.60;99.90
34153;DHT22;20426;48.372;10.888;2024-02-28T01:01:42;7.60;99.90
34153;DHT22;20426;48.372;10.888;2024-02-28T01:02:13;7.60;99.90
34153;DHT22;20426;48.372;10.888;2024-02-28T01:02:43;7.60;99.90
34153;DHT22;20426;48.372;10.888;2024-02-28T01:03:14;7.60;99.90
34153;DHT22;20426;48.372;10.888;2024-02-28T01:03:46;7.60;99.90
34153;DHT22;20426;48.372;10.888;2024-02-28T01:04:16;7.60;99.90
34153;DHT22;20426;48.372;10.888;2024-02-28T01:04:47;7.60;99.90
34153;DHT22;20426;48.372;10.888;2024-02-28T01:05:18;7.60;99.90
34153;DHT22;20426;48.372;10.888;2024-02-28T01:05:49;7.60;99.90
34153;DHT22;20426;48.372;10.888;2024-02-28T01:06:21;7.60;99.90
34153;DHT22;20426;48.372;10.888;2024-02-28T01:06:51;7.60;99.90
34153;DHT22;20426;48.372;10.888;2024-02-28T01:07:22;7.60;99.90
34153;DHT22;20426;48.372;10.888;2024-02-28T01:07:53;7.50;99.90
34153;DHT22;20426;48.372;10.888;2024-02-28T01:08:23;7.50;99.90
34153;DHT22;20426;48.372;10.888;2024-02-28T01:08:54;7.50;99.90
34153;DHT22;20426;48.372;10.888;2024-02-28T01:09:24;7.50;99.90
34153;DHT22;20426;48.372;10.888;2024-02-28T01:09:55;7.50;99.90
34153;DHT22;20426;48.372;10.888;2024-02-28T01:10:26;7.50;99.90
34153;DHT22;20426;48.372;10.888;2024-02-28T01:10:56;7.50;99.90
34153;DHT22;20426;48.372;10.888;2024-02-28T01:11:29;7.50;99.90
34153;DHT22;20426;48.372;10.888;2024-02-28T01:12:00;7.50;99.90
34153;DHT22;20426;48.372;10.888;2024-02-28T01:12:30;7.50;99.90
34153;DHT22;20426;48.372;10.888;2024-02-28T01:13:01;7.50;99.90
34153;DHT22;20426;48.372;10.888;2024-02-28T01:13:31;7.50;99.90
34153;DHT22;20426;48.372;10.888;2024-02-28T01:14:02;7.50;99.90
34153;DHT22;20426;48.372;10.888;2024-02-28T01:14:33;7.50;99.90
34153;DHT22;20426;48.372;10.888;2024-02-28T01:15:04;7.60;99.90
34153;DHT22;20426;48.372;10.888;2024-02-28T01:15:35;7.50;99.90
34153;DHT22;20426;48.372;10.888;2024-02-28T01:16:05;7.50;99.90
34153;DHT22;20426;48.372;10.888;2024-02-28T01:16:36;7.60;99.90
34153;DHT22;20426;48.372;10.888;2024-02-28T01:17:07;7.50;99.90
34153;DHT22;20426;48.372;10.888;2024-02-28T01:17:37;7.50;99.90
34153;DHT22;20426;48.372;10.888;2024-02-28T01:18:09;7.50;99.90
34153;DHT22;20426;48.372;10.888;2024-02-28T01:18:40;7.50;99.90
34153;DHT22;20426;48.372;10.888;2024-02-28T01:19:11;7.50;99.90
34153;DHT22;20426;48.372;10.888;2024-02-28T01:19:42;7.50;99.90
34153;DHT22;20426;48.372;10.888;2024-02-28T01:20:13;7.50;99.90
34153;DHT22;20426;48.372;10.888;2024-02-28T01:20:44;7.50;99.90
34153;DHT22;20426;48.372;10.888;2024-02-28T01:21:15;7.50;99.90
34153;DHT22;20426;48.372;10.888;2024-02-28T01:21:45;7.50;99.90
34153;DHT22;20426;48.372;10.888;2024-02-28T01:27:50;7.40;99.90
34153;DHT22;20426;48.372;10.888;2024-02-28T01:28:21;7.40;99.90
34153;DHT22;20426;48.372;10.888;2024-02-28T01:28:52;7.40;99.90
34153;DHT22;20426;48.372;10.888;2024-02-28T01:29:22;7.40;99.90
34153;DHT22;20426;48.372;10.888;2024-02-28T01:29:53;7.40;99.90
34153;DHT22;20426;48.372;10.888;2024-02-28T01:30:24;7.40;99.90
34153;DHT22;20426;48.372;10.888;2024-02-28T01:30:55;7.30;99.90
34153;DHT22;20426;48.372;10.888;2024-02-28T01:31:26;7.40;99.90
34153;DHT22;20426;48.372;10.888;2024-02-28T01:31:56;7.30;99.90
34153;DHT22;20426;48.372;10.888;2024-02-28T01:32:28;7.30;99.90
34153;DHT22;20426;48.372;10.888;2024-02-28T01:33:00;7.30;99.90
34153;DHT22;20426;48.372;10.888;2024-02-28T01:33:30;7.30;99.90
34153;DHT22;20426;48.372;10.888;2024-02-28T01:34:01;7.30;99.90
34153;DHT22;20426;48.372;10.888;2024-02-28T01:34:31;7.30;99.90
34153;DHT22;20426;48.372;10.888;2024-02-28T01:35:02;7.30;99.90
34153;DHT22;20426;48.372;10.888;2024-02-28T01:35:33;7.20;99.90
34153;DHT22;20426;48.372;10.888;2024-02-28T01:36:06;7.20;99.90
34153;DHT22;20426;48.372;10.888;2024-02-28T01:36:37;7.20;99.90
34153;DHT22;20426;48.372;10.888;2024-02-28T01:37:08;7.30;99.90
34153;DHT22;20426;48.372;10.888;2024-02-28T01:37:38;7.30;99.90
34153;DHT22;20426;48.372;10.888;2024-02-28T01:38:09;7.30;99.90
34153;DHT22;20426;48.372;10.888;2024-02-28T01:38:40;7.30;99.90
34153;DHT22;20426;48.372;10.888;2024-02-28T01:39:10;7.30;99.90
34153;DHT22;20426;48.372;10.888;2024-02-28T01:39:41;7.30;99.90
34153;DHT22;20426;48.372;10.888;2024-02-28T01:40:12;7.30;99.90
34153;DHT22;20426;48.372;10.888;2024-02-28T01:40:46;7.20;99.90
34153;DHT22;20426;48.372;10.888;2024-02-28T01:41:17;7.30;99.90
34153;DHT22;20426;48.372;10.888;2024-02-28T01:41:54;7.20;99.90
34153;DHT22;20426;48.372;10.888;2024-02-28T01:42:24;7.20;99.90
34153;DHT22;20426;48.372;10.888;2024-02-28T01:43:01;7.20;99.90
34153;DHT22;20426;48.372;10.888;2024-02-28T01:43:32;7.20;99.90
34153;DHT22;20426;48.372;10.888;2024-02-28T01:44:03;7.30;99.90
34153;DHT22;20426;48.372;10.888;2024-02-28T01:44:41;7.20;99.90
34153;DHT22;20426;48.372;10.888;2024-02-28T01:45:14;7.30;99.90
34153;DHT22;20426;48.372;10.888;2024-02-28T01:45:45;7.30;99.90
34153;DHT22;20426;48.372;10.888;2024-02-28T01:46:25;7.30;99.90
34153;DHT22;20426;48.372;10.888;2024-02-28T01:46:57;7.30;99.90
34153;DHT22;20426;48.372;10.888;2024-02-28T01:47:29;7.30;99.90
34153;DHT22;20426;48.372;10.888;2024-02-28T01:48:01;7.30;99.90
34153;DHT22;20426;48.372;10.888;2024-02-28T01:48:32;7.30;99.90
34153;DHT22;20426;48.372;10.888;2024-02-28T01:49:04;7.30;99.90
34153;DHT22;20426;48.372;10.888;2024-02-28T01:49:34;7.30;99.90
34153;DHT22;20426;48.372;10.888;2024-02-28T01:50:06;7.30;99.90
34153;DHT22;20426;48.372;10.888;2024-02-28T01:50:38;7.30;99.90
34153;DHT22;20426;48.372;10.888;2024-02-28T01:51:09;7.30;99.90
34153;DHT22;20426;48.372;10.888;2024-02-28T01:51:41;7.30;99.90
34153;DHT22;20426;48.372;10.888;2024-02-28T01:52:13;7.30;99.90
34153;DHT22;20426;48.372;10.888;2024-02-28T01:52:44;7.30;99.90
34153;DHT22;20426;48.372;10.888;2024-02-28T01:53:15;7.30;99.90
34153;DHT22;20426;48.372;10.888;2024-02-28T01:53:46;7.30;99.90
34153;DHT22;20426;48.372;10.888;2024-02-28T01:54:18;7.30;99.90
34153;DHT22;20426;48.372;10.888;2024-02-28T01:54:49;7.30;99.90
34153;DHT22;20426;48.372;10.888;2024-02-28T01:55:19;7.30;99.90
34153;DHT22;20426;48.372;10.888;2024-02-28T01:55:50;7.30;99.90
34153;DHT22;20426;48.372;10.888;2024-02-28T01:56:23;7.30;99.90
34153;DHT22;20426;48.372;10.888;2024-02-28T01:56:56;7.30;99.90
34153;DHT22;20426;48.372;10.888;2024-02-28T01:57:27;7.30;99.90
34153;DHT22;20426;48.372;10.888;2024-02-28T01:57:58;7.30;99.90
34153;DHT22;20426;48.372;10.888;2024-02-28T01:58:29;7.30;99.90
34153;DHT22;20426;48.372;10.888;2024-02-28T01:58:59;7.30;99.90
34153;DHT22;20426;48.372;10.888;2024-02-28T01:59:31;7.20;99.90
34153;DHT22;20426;48.372;10.888;2024-02-28T02:00:03;7.20;99.90
34153;DHT22;20426;48.372;10.888;2024-02-28T02:00:34;7.20;99.90
34153;DHT22;20426;48.372;10.888;2024-02-28T02:01:06;7.20;99.90
34153;DHT22;20426;48.372;10.888;2024-02-28T02:01:37;7.20;99.90
34153;DHT22;20426;48.372;10.888;2024-02-28T02:02:08;7.20;99.90
34153;DHT22;20426;48.372;10.888;2024-02-28T02:02:39;7.20;99.90
34153;DHT22;20426;48.372;10.888;2024-02-28T02:03:10;7.20;99.90
34153;DHT22;20426;48.372;10.888;2024-02-28T02:03:42;7.20;99.90
34153;DHT22;20426;48.372;10.888;2024-02-28T02:04:13;7.20;99.90
34153;DHT22;20426;48.372;10.888;2024-02-28T02:04:43;7.20;99.90
34153;DHT22;20426;48.372;10.888;2024-02-28T02:05:14;7.20;99.90
34153;DHT22;20426;48.372;10.888;2024-02-28T02:05:46;7.20;99.90
34153;DHT22;20426;48.372;10.888;2024-02-28T02:06:18;7.20;99.90
34153;DHT22;20426;48.372;10.888;2024-02-28T02:06:48;7.20;99.90
34153;DHT22;20426;48.372;10.888;2024-02-28T02:07:20;7.20;99.90
34153;DHT22;20426;48.372;10.888;2024-02-28T02:07:50;7.20;99.90
34153;DHT22;20426;48.372;10.888;2024-02-28T02:08:23;7.20;99.90
34153;DHT22;20426;48.372;10.888;2024-02-28T02:08:53;7.20;99.90
34153;DHT22;20426;48.372;10.888;2024-02-28T02:09:25;7.20;99.90
34153;DHT22;20426;48.372;10.888;2024-02-28T02:09:56;7.20;99.90
34153;DHT22;20426;48.372;10.888;2024-02-28T02:10:27;7.20;99.90
34153;DHT22;20426;48.372;10.888;2024-02-28T02:10:58;7.20;99.90
34153;DHT22;20426;48.372;10.888;2024-02-28T02:11:29;7.20;99.90
34153;DHT22;20426;48.372;10.888;2024-02-28T02:12:00;7.20;99.90
34153;DHT22;20426;48.372;10.888;2024-02-28T02:12:31;7.10;99.90
34153;DHT22;20426;48.372;10.888;2024-02-28T02:13:06;7.10;99.90
34153;DHT22;20426;48.372;10.888;2024-02-28T02:13:48;7.10;99.90
34153;DHT22;20426;48.372;10.888;2024-02-28T02:14:19;7.10;99.90
34153;DHT22;20426;48.372;10.888;2024-02-28T02:14:50;7.10;99.90
34153;DHT22;20426;48.372;10.888;2024-02-28T02:15:20;7.10;99.90
34153;DHT22;20426;48.372;10.888;2024-02-28T02:15:51;7.10;99.90
34153;DHT22;20426;48.372;10.888;2024-02-28T02:16:22;7.20;99.90
34153;DHT22;20426;48.372;10.888;2024-02-28T02:16:53;7.10;99.90
34153;DHT22;20426;48.372;10.888;2024-02-28T02:17:23;7.10;99.90
34153;DHT22;20426;48.372;10.888;2024-02-28T02:17:54;7.10;99.90
34153;DHT22;20426;48.372;10.888;2024-02-28T02:18:26;7.10;99.90
34153;DHT22;20426;48.372;10.888;2024-02-28T02:18:57;7.10;99.90
34153;DHT22;20426;48.372;10.888;2024-02-28T02:19:27;7.10;99.90
34153;DHT22;20426;48.372;10.888;2024-02-28T02:19:58;7.10;99.90
34153;DHT22;20426;48.372;10.888;2024-02-28T02:20:32;7.10;99.90
34153;DHT22;20426;48.372;10.888;2024-02-28T02:21:05;7.10;99.90
34153;DHT22;20426;48.372;10.888;2024-02-28T02:21:58;7.10;99.90
34153;DHT22;20426;48.372;10.888;2024-02-28T02:22:38;7.10;99.90
34153;DHT22;20426;48.372;10.888;2024-02-28T02:23:09;7.10;99.90
34153;DHT22;20426;48.372;10.888;2024-02-28T02:23:40;7.10;99.90
34153;DHT22;20426;48.372;10.888;2024-02-28T02:24:11;7.10;99.90
34153;DHT22;20426;48.372;10.888;2024-02-28T02:24:42;7.00;99.90
34153;DHT22;20426;48.372;10.888;2024-02-28T02:25:54;7.00;99.90
34153;DHT22;20426;48.372;10.888;2024-02-28T02:26:25;7.00;99.90
34153;DHT22;20426;48.372;10.888;2024-02-28T02:26:58;7.00;99.90
34153;DHT22;20426;48.372;10.888;2024-02-28T02:27:28;7.00;99.90
34153;DHT22;20426;48.372;10.888;2024-02-28T02:27:59;7.00;99.90
34153;DHT22;20426;48.372;10.888;2024-02-28T02:28:30;7.00;99.90
34153;DHT22;20426;48.372;10.888;2024-02-28T02:29:00;7.00;99.90
34153;DHT22;20426;48.372;10.888;2024-02-28T02:29:31;7.00;99.90
34153;DHT22;20426;48.372;10.888;2024-02-28T02:30:02;7.00;99.90
34153;DHT22;20426;48.372;10.888;2024-02-28T02:30:33;7.00;99.90
34153;DHT22;20426;48.372;10.888;2024-02-28T02:31:04;7.00;99.90
34153;DHT22;20426;48.372;10.888;2024-02-28T02:31:34;7.00;99.90
34153;DHT22;20426;48.372;10.888;2024-02-28T02:32:05;7.00;99.90
34153;DHT22;20426;48.372;10.888;2024-02-28T02:32:36;7.00;99.90
34153;DHT22;20426;48.372;10.888;2024-02-28T02:33:07;6.90;99.90
34153;DHT22;20426;48.372;10.888;2024-02-28T02:33:38;6.90;99.90
34153;DHT22;20426;48.372;10.888;2024-02-28T02:34:08;6.90;99.90
34153;DHT22;20426;48.372;10.888;2024-02-28T02:34:39;6.90;99.90
34153;DHT22;20426;48.372;10.888;2024-02-28T02:35:09;7.00;99.90
34153;DHT22;20426;48.372;10.888;2024-02-28T02:35:40;6.90;99.90
34153;DHT22;20426;48.372;10.888;2024-02-28T02:36:11;7.00;99.90
34153;DHT22;20426;48.372;10.888;2024-02-28T02:36:42;7.00;99.90
34153;DHT22;20426;48.372;10.888;2024-02-28T02:37:12;7.00;99.90
34153;DHT22;20426;48.372;10.888;2024-02-28T02:37:44;7.00;99.90
34153;DHT22;20426;48.372;10.888;2024-02-28T02:38:16;7.00;99.90
34153;DHT22;20426;48.372;10.888;2024-02-28T02:38:47;7.00;99.90
34153;DHT22;20426;48.372;10.888;2024-02-28T02:39:17;7.00;99.90
34153;DHT22;20426;48.372;10.888;2024-02-28T02:39:48;7.00;99.90
34153;DHT22;20426;48.372;10.888;2024-02-28T02:40:19;7.00;99.90
34153;DHT22;20426;48.372;10.888;2024-02-28T02:40:52;7.00;99.90
34153;DHT22;20426;48.372;10.888;2024-02-28T02:41:23;7.00;99.90
34153;DHT22;20426;48.372;10.888;2024-02-28T02:41:53;7.00;99.90
34153;DHT22;20426;48.372;10.888;2024-02-28T02:42:24;6.90;99.90
34153;DHT22;20426;48.372;10.888;2024-02-28T02:42:55;7.00;99.90
34153;DHT22;20426;48.372;10.888;2024-02-28T02:43:25;7.00;99.90
34153;DHT22;20426;48.372;10.888;2024-02-28T02:43:56;7.00;99.90
34153;DHT22;20426;48.372;10.888;2024-02-28T02:44:28;7.00;99.90
34153;DHT22;20426;48.372;10.888;2024-02-28T02:44:59;7.00;99.90
34153;DHT22;20426;48.372;10.888;2024-02-28T02:45:29;7.00;99.90
34153;DHT22;20426;48.372;10.888;2024-02-28T02:46:00;7.00;99.90
34153;DHT22;20426;48.372;10.888;2024-02-28T02:46:31;7.00;99.90
34153;DHT22;20426;48.372;10.888;2024-02-28T02:47:01;7.00;99.90
34153;DHT22;20426;48.372;10.888;2024-02-28T02:47:32;7.00;99.90
34153;DHT22;20426;48.372;10.888;2024-02-28T02:48:03;6.90;99.90
34153;DHT22;20426;48.372;10.888;2024-02-28T02:48:34;6.90;99.90
34153;DHT22;20426;48.372;10.888;2024-02-28T02:49:04;6.90;99.90
34153;DHT22;20426;48.372;10.888;2024-02-28T02:49:35;7.00;99.90
34153;DHT22;20426;48.372;10.888;2024-02-28T02:50:06;7.00;99.90
34153;DHT22;20426;48.372;10.888;2024-02-28T02:50:37;7.00;99.90
34153;DHT22;20426;48.372;10.888;2024-02-28T02:51:08;7.00;99.90
34153;DHT22;20426;48.372;10.888;2024-02-28T02:51:38;7.00;99.90
34153;DHT22;20426;48.372;10.888;2024-02-28T02:52:09;6.90;99.90
34153;DHT22;20426;48.372;10.888;2024-02-28T02:52:40;7.00;99.90
34153;DHT22;20426;48.372;10.888;2024-02-28T02:53:11;6.90;99.90
34153;DHT22;20426;48.372;10.888;2024-02-28T02:53:41;6.90;99.90
34153;DHT22;20426;48.372;10.888;2024-02-28T02:54:12;6.90;99.90
34153;DHT22;20426;48.372;10.888;2024-02-28T02:54:43;6.90;99.90
34153;DHT22;20426;48.372;10.888;2024-02-28T02:55:14;6.90;99.90
34153;DHT22;20426;48.372;10.888;2024-02-28T02:55:45;7.00;99.90
34153;DHT22;20426;48.372;10.888;2024-02-28T02:56:16;6.90;99.90
34153;DHT22;20426;48.372;10.888;2024-02-28T02:56:46;7.00;99.90
34153;DHT22;20426;48.372;10.888;2024-02-28T02:57:17;7.00;99.90
34153;DHT22;20426;48.372;10.888;2024-02-28T02:57:48;7.00;99.90
34153;DHT22;20426;48.372;10.888;2024-02-28T02:58:19;7.00;99.90
34153;DHT22;20426;48.372;10.888;2024-02-28T02:58:49;7.00;99.90
34153;DHT22;20426;48.372;10.888;2024-02-28T02:59:20;7.00;99.90
34153;DHT22;20426;48.372;10.888;2024-02-28T02:59:52;7.00;99.90
34153;DHT22;20426;48.372;10.888;2024-02-28T03:00:23;7.00;99.90
34153;DHT22;20426;48.372;10.888;2024-02-28T03:00:53;7.00;99.90
34153;DHT22;20426;48.372;10.888;2024-02-28T03:01:24;7.00;99.90
34153;DHT22;20426;48.372;10.888;2024-02-28T03:01:55;7.00;99.90
34153;DHT22;20426;48.372;10.888;2024-02-28T03:02:25;7.00;99.90
34153;DHT22;20426;48.372;10.888;2024-02-28T03:02:56;7.00;99.90
34153;DHT22;20426;48.372;10.888;2024-02-28T03:03:27;7.10;99.90
34153;DHT22;20426;48.372;10.888;2024-02-28T03:03:57;7.00;99.90
34153;DHT22;20426;48.372;10.888;2024-02-28T03:04:28;7.00;99.90
34153;DHT22;20426;48.372;10.888;2024-02-28T03:04:59;7.10;99.90
34153;DHT22;20426;48.372;10.888;2024-02-28T03:05:29;7.10;99.90
34153;DHT22;20426;48.372;10.888;2024-02-28T03:06:00;7.10;99.90
34153;DHT22;20426;48.372;10.888;2024-02-28T03:06:31;7.10;99.90
34153;DHT22;20426;48.372;10.888;2024-02-28T03:07:02;7.10;99.90
34153;DHT22;20426;48.372;10.888;2024-02-28T03:07:33;7.10;99.90
34153;DHT22;20426;48.372;10.888;2024-02-28T03:08:04;7.10;99.90
34153;DHT22;20426;48.372;10.888;2024-02-28T03:08:35;7.10;99.90
34153;DHT22;20426;48.372;10.888;2024-02-28T03:09:05;7.10;99.90
34153;DHT22;20426;48.372;10.888;2024-02-28T03:09:38;7.10;99.90
34153;DHT22;20426;48.372;10.888;2024-02-28T03:10:08;7.10;99.90
34153;DHT22;20426;48.372;10.888;2024-02-28T03:10:40;7.10;99.90
34153;DHT22;20426;48.372;10.888;2024-02-28T03:11:11;7.10;99.90
34153;DHT22;20426;48.372;10.888;2024-02-28T03:11:42;7.10;99.90
34153;DHT22;20426;48.372;10.888;2024-02-28T03:12:12;7.10;99.90
34153;DHT22;20426;48.372;10.888;2024-02-28T03:12:43;7.10;99.90
34153;DHT22;20426;48.372;10.888;2024-02-28T03:13:14;7.10;99.90
34153;DHT22;20426;48.372;10.888;2024-02-28T03:13:44;7.10;99.90
34153;DHT22;20426;48.372;10.888;2024-02-28T03:14:15;7.10;99.90
34153;DHT22;20426;48.372;10.888;2024-02-28T03:14:46;7.10;99.90
34153;DHT22;20426;48.372;10.888;2024-02-28T03:15:17;7.10;99.90
34153;DHT22;20426;48.372;10.888;2024-02-28T03:15:47;7.10;99.90
34153;DHT22;20426;48.372;10.888;2024-02-28T03:16:18;7.00;99.90
34153;DHT22;20426;48.372;10.888;2024-02-28T03:16:49;7.00;99.90
34153;DHT22;20426;48.372;10.888;2024-02-28T03:17:20;7.00;99.90
34153;DHT22;20426;48.372;10.888;2024-02-28T03:17:50;7.00;99.90
34153;DHT22;20426;48.372;10.888;2024-02-28T03:18:21;7.00;99.90
34153;DHT22;20426;48.372;10.888;2024-02-28T03:18:51;7.00;99.90
34153;DHT22;20426;48.372;10.888;2024-02-28T03:19:22;7.00;99.90
34153;DHT22;20426;48.372;10.888;2024-02-28T03:19:53;7.00;99.90
34153;DHT22;20426;48.372;10.888;2024-02-28T03:20:24;7.00;99.90
34153;DHT22;20426;48.372;10.888;2024-02-28T03:20:54;7.00;99.90
34153;DHT22;20426;48.372;10.888;2024-02-28T03:21:25;7.00;99.90
34153;DHT22;20426;48.372;10.888;2024-02-28T03:21:56;7.00;99.90
34153;DHT22;20426;48.372;10.888;2024-02-28T03:22:26;7.00;99.90
34153;DHT22;20426;48.372;10.888;2024-02-28T03:22:57;7.00;99.90